Portada
METAR-TAF:

METAR-TAF

Aeroports :

Anchorage, Alaska, Estats Units d'Amèrica

latitud: 61-10-28N, longitud: 149-59-46W, altitud: 44 m

Observació

L'informe es va fer fa 24 minuts, a les 17:53 UTC
Vent 8 kt del Nord
Temperatura -17°C
Humitat 77%
Pressió 1030 hPa
Visibilitat: 16.1 km
Cel clar

METAR: PANC 241753Z 35008KT 10SM CLR M17/M20 A3043 RMK AO2 SLP311 4/021 T11721200 11133 21178 50008

Hora: 09:17 (18:17 UTC)

Pronòstic

L'informe es va fer fa 56 minuts, a les 17:21 UTC
Pronòstic vàlid del 24 a les 18 UTC al 25 a les 24 UTC
Vent 11 kt del Nord
Visibilitat: 10 km
Cel clar

TAF: PANC 241721Z 2418/2524 35011KT P6SM SKC

Observacions i pronòstics meteorològics de més de 4000 aeroports (METAR i TAF).

Les estacions disponibles són els punts grocs i vermells al mapa.

Posi el ratolí al punt desitjat per veure el nom de l'estació.

Feu clic per veure les observacions i els pronòstics meteorològics.

Per canviar el mapa: feu clic els botons verds amb una creu de color negre per apropar; al botó verd amb un guió per allunyar la imatge; o en les fletxes verdes per a mapes adjacents.


METAR-TAF: